sensor_id;sensor_type;location;lat;lon;timestamp;P1;durP1;ratioP1;P2;durP2;ratioP2
75818;SDS011;64453;51.944;9.796;2023-04-03T00:02:05;2.30;;;1.70;;
75818;SDS011;64453;51.944;9.796;2023-04-03T00:04:32;3.00;;;1.20;;
75818;SDS011;64453;51.944;9.796;2023-04-03T00:06:59;1.60;;;1.03;;
75818;SDS011;64453;51.944;9.796;2023-04-03T00:09:28;2.00;;;1.13;;
75818;SDS011;64453;51.944;9.796;2023-04-03T00:11:55;3.67;;;1.70;;
75818;SDS011;64453;51.944;9.796;2023-04-03T00:14:22;4.27;;;1.93;;
75818;SDS011;64453;51.944;9.796;2023-04-03T00:16:48;2.73;;;1.47;;
75818;SDS011;64453;51.944;9.796;2023-04-03T00:19:15;2.97;;;1.37;;
75818;SDS011;64453;51.944;9.796;2023-04-03T00:21:42;5.43;;;1.97;;
75818;SDS011;64453;51.944;9.796;2023-04-03T00:24:09;4.00;;;1.77;;
75818;SDS011;64453;51.944;9.796;2023-04-03T00:26:38;1.97;;;1.47;;
75818;SDS011;64453;51.944;9.796;2023-04-03T00:29:05;2.10;;;1.20;;
75818;SDS011;64453;51.944;9.796;2023-04-03T00:31:31;3.10;;;1.77;;
75818;SDS011;64453;51.944;9.796;2023-04-03T00:33:58;3.20;;;1.20;;
75818;SDS011;64453;51.944;9.796;2023-04-03T00:36:25;3.30;;;1.10;;
75818;SDS011;64453;51.944;9.796;2023-04-03T00:38:52;1.97;;;1.00;;
75818;SDS011;64453;51.944;9.796;2023-04-03T00:41:19;4.77;;;1.37;;
75818;SDS011;64453;51.944;9.796;2023-04-03T00:43:47;2.07;;;1.40;;
75818;SDS011;64453;51.944;9.796;2023-04-03T00:46:14;2.33;;;1.40;;
75818;SDS011;64453;51.944;9.796;2023-04-03T00:48:41;2.67;;;1.40;;
75818;SDS011;64453;51.944;9.796;2023-04-03T00:51:11;2.13;;;1.33;;
75818;SDS011;64453;51.944;9.796;2023-04-03T00:53:41;2.00;;;1.03;;
75818;SDS011;64453;51.944;9.796;2023-04-03T00:56:13;3.47;;;1.47;;
75818;SDS011;64453;51.944;9.796;2023-04-03T00:58:44;4.50;;;1.27;;
75818;SDS011;64453;51.944;9.796;2023-04-03T01:01:18;2.00;;;1.30;;
75818;SDS011;64453;51.944;9.796;2023-04-03T01:03:49;4.13;;;1.40;;
75818;SDS011;64453;51.944;9.796;2023-04-03T01:06:17;2.10;;;1.23;;
75818;SDS011;64453;51.944;9.796;2023-04-03T01:08:49;2.47;;;1.37;;
75818;SDS011;64453;51.944;9.796;2023-04-03T01:11:17;1.83;;;1.10;;
75818;SDS011;64453;51.944;9.796;2023-04-03T01:13:45;3.10;;;1.17;;
75818;SDS011;64453;51.944;9.796;2023-04-03T01:16:14;2.70;;;1.10;;
75818;SDS011;64453;51.944;9.796;2023-04-03T01:18:41;2.03;;;1.30;;
75818;SDS011;64453;51.944;9.796;2023-04-03T01:24:32;4.27;;;1.03;;
75818;SDS011;64453;51.944;9.796;2023-04-03T01:27:02;1.80;;;1.13;;
75818;SDS011;64453;51.944;9.796;2023-04-03T01:29:34;1.67;;;1.20;;
75818;SDS011;64453;51.944;9.796;2023-04-03T01:32:03;2.00;;;0.87;;
75818;SDS011;64453;51.944;9.796;2023-04-03T01:34:30;1.67;;;0.93;;
75818;SDS011;64453;51.944;9.796;2023-04-03T01:37:11;1.23;;;0.90;;
75818;SDS011;64453;51.944;9.796;2023-04-03T01:39:38;1.40;;;1.10;;
75818;SDS011;64453;51.944;9.796;2023-04-03T01:42:05;2.30;;;1.53;;
75818;SDS011;64453;51.944;9.796;2023-04-03T01:44:32;5.03;;;1.13;;
75818;SDS011;64453;51.944;9.796;2023-04-03T01:46:58;3.80;;;1.87;;
75818;SDS011;64453;51.944;9.796;2023-04-03T01:49:28;1.40;;;1.00;;
75818;SDS011;64453;51.944;9.796;2023-04-03T01:51:55;1.93;;;0.90;;
75818;SDS011;64453;51.944;9.796;2023-04-03T01:54:21;1.20;;;1.10;;
75818;SDS011;64453;51.944;9.796;2023-04-03T01:56:48;2.53;;;1.27;;
75818;SDS011;64453;51.944;9.796;2023-04-03T01:59:15;1.90;;;1.17;;
75818;SDS011;64453;51.944;9.796;2023-04-03T02:01:42;1.27;;;1.17;;
75818;SDS011;64453;51.944;9.796;2023-04-03T02:04:10;2.50;;;1.90;;
75818;SDS011;64453;51.944;9.796;2023-04-03T02:06:39;1.53;;;1.17;;
75818;SDS011;64453;51.944;9.796;2023-04-03T02:09:06;1.77;;;1.40;;
75818;SDS011;64453;51.944;9.796;2023-04-03T02:11:34;3.90;;;1.20;;
75818;SDS011;64453;51.944;9.796;2023-04-03T02:14:01;2.83;;;1.27;;
75818;SDS011;64453;51.944;9.796;2023-04-03T02:16:28;3.07;;;1.47;;
75818;SDS011;64453;51.944;9.796;2023-04-03T02:18:55;1.37;;;0.90;;
75818;SDS011;64453;51.944;9.796;2023-04-03T02:21:22;3.37;;;1.43;;
75818;SDS011;64453;51.944;9.796;2023-04-03T02:23:51;2.17;;;1.50;;
75818;SDS011;64453;51.944;9.796;2023-04-03T02:26:17;1.50;;;1.13;;
75818;SDS011;64453;51.944;9.796;2023-04-03T02:28:45;1.20;;;1.10;;
75818;SDS011;64453;51.944;9.796;2023-04-03T02:31:12;3.90;;;2.00;;
75818;SDS011;64453;51.944;9.796;2023-04-03T02:33:39;2.33;;;1.57;;
75818;SDS011;64453;51.944;9.796;2023-04-03T02:36:06;2.00;;;1.07;;
75818;SDS011;64453;51.944;9.796;2023-04-03T02:38:34;2.60;;;1.47;;
75818;SDS011;64453;51.944;9.796;2023-04-03T02:41:03;2.83;;;1.53;;
75818;SDS011;64453;51.944;9.796;2023-04-03T02:43:32;4.87;;;2.13;;
75818;SDS011;64453;51.944;9.796;2023-04-03T02:45:59;4.47;;;2.13;;
75818;SDS011;64453;51.944;9.796;2023-04-03T02:48:26;4.60;;;1.80;;
75818;SDS011;64453;51.944;9.796;2023-04-03T02:50:54;2.57;;;1.80;;
75818;SDS011;64453;51.944;9.796;2023-04-03T02:53:21;5.00;;;2.10;;
75818;SDS011;64453;51.944;9.796;2023-04-03T02:55:48;3.67;;;2.60;;
75818;SDS011;64453;51.944;9.796;2023-04-03T02:58:16;3.53;;;1.73;;
75818;SDS011;64453;51.944;9.796;2023-04-03T03:00:43;2.27;;;1.60;;
75818;SDS011;64453;51.944;9.796;2023-04-03T03:03:10;2.83;;;1.70;;
75818;SDS011;64453;51.944;9.796;2023-04-03T03:05:38;2.80;;;1.80;;
75818;SDS011;64453;51.944;9.796;2023-04-03T03:08:05;3.07;;;1.87;;
75818;SDS011;64453;51.944;9.796;2023-04-03T03:10:32;2.37;;;1.60;;
75818;SDS011;64453;51.944;9.796;2023-04-03T03:12:58;2.50;;;1.60;;
75818;SDS011;64453;51.944;9.796;2023-04-03T03:15:27;3.23;;;1.40;;
75818;SDS011;64453;51.944;9.796;2023-04-03T03:17:54;3.27;;;1.73;;
75818;SDS011;64453;51.944;9.796;2023-04-03T03:20:21;2.97;;;1.53;;
75818;SDS011;64453;51.944;9.796;2023-04-03T03:22:48;2.97;;;1.63;;
75818;SDS011;64453;51.944;9.796;2023-04-03T03:25:15;1.80;;;1.43;;
75818;SDS011;64453;51.944;9.796;2023-04-03T03:27:41;3.33;;;1.80;;
75818;SDS011;64453;51.944;9.796;2023-04-03T03:30:08;5.10;;;1.60;;
75818;SDS011;64453;51.944;9.796;2023-04-03T03:32:37;4.10;;;1.90;;
75818;SDS011;64453;51.944;9.796;2023-04-03T03:35:04;2.63;;;1.60;;
75818;SDS011;64453;51.944;9.796;2023-04-03T03:37:31;3.17;;;1.83;;
75818;SDS011;64453;51.944;9.796;2023-04-03T03:39:58;5.00;;;1.80;;
75818;SDS011;64453;51.944;9.796;2023-04-03T03:42:25;2.37;;;1.70;;
75818;SDS011;64453;51.944;9.796;2023-04-03T03:44:52;2.83;;;1.60;;
75818;SDS011;64453;51.944;9.796;2023-04-03T03:47:18;2.00;;;1.27;;
75818;SDS011;64453;51.944;9.796;2023-04-03T03:49:47;1.80;;;1.47;;
75818;SDS011;64453;51.944;9.796;2023-04-03T03:52:13;2.23;;;1.70;;
75818;SDS011;64453;51.944;9.796;2023-04-03T03:54:40;2.70;;;1.47;;
75818;SDS011;64453;51.944;9.796;2023-04-03T03:57:08;1.87;;;1.50;;
75818;SDS011;64453;51.944;9.796;2023-04-03T03:59:34;2.60;;;1.40;;
75818;SDS011;64453;51.944;9.796;2023-04-03T04:02:01;3.13;;;1.60;;
75818;SDS011;64453;51.944;9.796;2023-04-03T04:04:28;3.87;;;1.70;;
75818;SDS011;64453;51.944;9.796;2023-04-03T04:06:56;2.77;;;1.60;;
75818;SDS011;64453;51.944;9.796;2023-04-03T04:09:25;2.23;;;1.70;;
75818;SDS011;64453;51.944;9.796;2023-04-03T04:11:52;4.00;;;1.93;;
75818;SDS011;64453;51.944;9.796;2023-04-03T04:14:19;2.70;;;1.70;;
75818;SDS011;64453;51.944;9.796;2023-04-03T04:16:46;2.50;;;1.70;;
75818;SDS011;64453;51.944;9.796;2023-04-03T04:19:13;3.93;;;1.87;;
75818;SDS011;64453;51.944;9.796;2023-04-03T04:21:40;1.90;;;1.50;;
75818;SDS011;64453;51.944;9.796;2023-04-03T04:24:09;3.90;;;1.80;;
75818;SDS011;64453;51.944;9.796;2023-04-03T04:26:36;3.63;;;1.87;;
75818;SDS011;64453;51.944;9.796;2023-04-03T04:29:02;2.77;;;1.80;;
75818;SDS011;64453;51.944;9.796;2023-04-03T04:31:29;3.77;;;1.70;;
75818;SDS011;64453;51.944;9.796;2023-04-03T04:33:56;3.43;;;1.73;;
75818;SDS011;64453;51.944;9.796;2023-04-03T04:36:23;2.13;;;1.70;;
75818;SDS011;64453;51.944;9.796;2023-04-03T04:38:50;5.27;;;2.50;;
75818;SDS011;64453;51.944;9.796;2023-04-03T04:41:19;2.43;;;2.23;;
75818;SDS011;64453;51.944;9.796;2023-04-03T04:43:47;5.37;;;2.77;;
75818;SDS011;64453;51.944;9.796;2023-04-03T04:46:14;2.80;;;1.80;;
75818;SDS011;64453;51.944;9.796;2023-04-03T04:48:41;2.33;;;1.80;;
75818;SDS011;64453;51.944;9.796;2023-04-03T04:51:08;2.63;;;1.77;;
75818;SDS011;64453;51.944;9.796;2023-04-03T04:53:36;3.27;;;1.57;;
75818;SDS011;64453;51.944;9.796;2023-04-03T04:56:03;2.47;;;1.47;;
75818;SDS011;64453;51.944;9.796;2023-04-03T04:58:32;2.83;;;1.70;;
75818;SDS011;64453;51.944;9.796;2023-04-03T05:00:59;3.03;;;1.70;;
75818;SDS011;64453;51.944;9.796;2023-04-03T05:03:26;2.07;;;1.70;;
75818;SDS011;64453;51.944;9.796;2023-04-03T05:05:53;5.17;;;2.13;;
75818;SDS011;64453;51.944;9.796;2023-04-03T05:08:20;4.70;;;2.40;;
75818;SDS011;64453;51.944;9.796;2023-04-03T05:10:47;1.93;;;1.40;;
75818;SDS011;64453;51.944;9.796;2023-04-03T05:13:14;2.57;;;1.90;;
75818;SDS011;64453;51.944;9.796;2023-04-03T05:15:42;3.10;;;1.90;;
75818;SDS011;64453;51.944;9.796;2023-04-03T05:18:09;3.63;;;2.10;;
75818;SDS011;64453;51.944;9.796;2023-04-03T05:20:36;3.50;;;2.07;;
75818;SDS011;64453;51.944;9.796;2023-04-03T05:23:03;3.97;;;2.87;;
75818;SDS011;64453;51.944;9.796;2023-04-03T05:25:30;4.20;;;2.50;;
75818;SDS011;64453;51.944;9.796;2023-04-03T05:27:57;4.30;;;2.90;;
75818;SDS011;64453;51.944;9.796;2023-04-03T05:30:24;3.80;;;2.97;;
75818;SDS011;64453;51.944;9.796;2023-04-03T05:32:52;6.47;;;3.00;;
75818;SDS011;64453;51.944;9.796;2023-04-03T05:35:19;3.93;;;3.30;;
75818;SDS011;64453;51.944;9.796;2023-04-03T05:37:46;2.53;;;2.30;;
75818;SDS011;64453;51.944;9.796;2023-04-03T05:40:13;3.13;;;2.60;;
75818;SDS011;64453;51.944;9.796;2023-04-03T05:42:40;2.33;;;2.13;;
75818;SDS011;64453;51.944;9.796;2023-04-03T05:45:07;3.70;;;2.50;;
75818;SDS011;64453;51.944;9.796;2023-04-03T05:47:34;2.67;;;1.80;;
75818;SDS011;64453;51.944;9.796;2023-04-03T05:50:03;3.20;;;2.90;;
75818;SDS011;64453;51.944;9.796;2023-04-03T05:52:31;2.20;;;1.90;;
75818;SDS011;64453;51.944;9.796;2023-04-03T05:55:01;3.80;;;2.20;;
75818;SDS011;64453;51.944;9.796;2023-04-03T05:57:29;4.17;;;2.00;;
75818;SDS011;64453;51.944;9.796;2023-04-03T05:59:56;2.17;;;1.80;;
75818;SDS011;64453;51.944;9.796;2023-04-03T06:02:23;1.90;;;1.77;;
75818;SDS011;64453;51.944;9.796;2023-04-03T06:04:51;3.00;;;2.00;;
75818;SDS011;64453;51.944;9.796;2023-04-03T06:07:20;3.70;;;1.93;;
75818;SDS011;64453;51.944;9.796;2023-04-03T06:09:52;2.20;;;1.63;;
75818;SDS011;64453;51.944;9.796;2023-04-03T06:12:19;4.47;;;2.23;;
75818;SDS011;64453;51.944;9.796;2023-04-03T06:14:46;3.87;;;1.93;;
75818;SDS011;64453;51.944;9.796;2023-04-03T06:17:13;2.37;;;1.90;;
75818;SDS011;64453;51.944;9.796;2023-04-03T06:19:40;4.23;;;2.33;;
75818;SDS011;64453;51.944;9.796;2023-04-03T06:22:07;3.53;;;2.20;;
75818;SDS011;64453;51.944;9.796;2023-04-03T06:24:35;4.90;;;2.10;;
75818;SDS011;64453;51.944;9.796;2023-04-03T06:27:02;1.77;;;1.43;;
75818;SDS011;64453;51.944;9.796;2023-04-03T06:29:29;4.60;;;1.80;;
75818;SDS011;64453;51.944;9.796;2023-04-03T06:31:57;2.87;;;1.67;;
75818;SDS011;64453;51.944;9.796;2023-04-03T06:34:24;6.43;;;2.30;;
75818;SDS011;64453;51.944;9.796;2023-04-03T06:36:50;2.90;;;1.77;;
75818;SDS011;64453;51.944;9.796;2023-04-03T06:39:19;2.03;;;1.83;;
75818;SDS011;64453;51.944;9.796;2023-04-03T06:41:50;2.87;;;1.43;;
75818;SDS011;64453;51.944;9.796;2023-04-03T06:44:17;3.50;;;1.60;;
75818;SDS011;64453;51.944;9.796;2023-04-03T06:46:44;3.30;;;1.57;;
75818;SDS011;64453;51.944;9.796;2023-04-03T06:49:12;4.90;;;1.40;;
75818;SDS011;64453;51.944;9.796;2023-04-03T06:51:40;3.27;;;1.70;;
75818;SDS011;64453;51.944;9.796;2023-04-03T06:54:06;2.03;;;1.40;;
75818;SDS011;64453;51.944;9.796;2023-04-03T06:56:34;11.03;;;2.23;;
75818;SDS011;64453;51.944;9.796;2023-04-03T06:59:02;4.93;;;1.67;;
75818;SDS011;64453;51.944;9.796;2023-04-03T07:01:29;3.70;;;1.80;;
75818;SDS011;64453;51.944;9.796;2023-04-03T07:03:57;3.30;;;1.60;;
75818;SDS011;64453;51.944;9.796;2023-04-03T07:06:24;2.03;;;1.17;;
75818;SDS011;64453;51.944;9.796;2023-04-03T07:08:52;1.93;;;1.30;;
75818;SDS011;64453;51.944;9.796;2023-04-03T07:11:19;5.37;;;1.67;;
75818;SDS011;64453;51.944;9.796;2023-04-03T07:13:46;1.53;;;1.20;;
75818;SDS011;64453;51.944;9.796;2023-04-03T07:16:14;1.50;;;1.03;;
75818;SDS011;64453;51.944;9.796;2023-04-03T07:18:41;4.57;;;1.50;;
75818;SDS011;64453;51.944;9.796;2023-04-03T07:21:08;2.43;;;1.43;;
75818;SDS011;64453;51.944;9.796;2023-04-03T07:23:35;3.07;;;1.70;;
75818;SDS011;64453;51.944;9.796;2023-04-03T07:26:02;1.80;;;1.67;;
75818;SDS011;64453;51.944;9.796;2023-04-03T07:28:29;3.50;;;1.40;;
75818;SDS011;64453;51.944;9.796;2023-04-03T07:30:59;1.90;;;1.27;;
75818;SDS011;64453;51.944;9.796;2023-04-03T07:33:30;1.53;;;1.20;;
75818;SDS011;64453;51.944;9.796;2023-04-03T07:35:57;3.07;;;1.40;;
75818;SDS011;64453;51.944;9.796;2023-04-03T07:38:25;2.13;;;1.20;;
75818;SDS011;64453;51.944;9.796;2023-04-03T07:40:52;2.60;;;1.40;;
75818;SDS011;64453;51.944;9.796;2023-04-03T07:43:19;2.20;;;1.20;;
75818;SDS011;64453;51.944;9.796;2023-04-03T07:45:49;1.03;;;1.00;;
75818;SDS011;64453;51.944;9.796;2023-04-03T07:48:17;1.07;;;0.80;;
75818;SDS011;64453;51.944;9.796;2023-04-03T07:50:46;3.50;;;1.13;;
75818;SDS011;64453;51.944;9.796;2023-04-03T07:53:13;2.67;;;1.13;;
75818;SDS011;64453;51.944;9.796;2023-04-03T07:55:41;1.77;;;0.83;;
75818;SDS011;64453;51.944;9.796;2023-04-03T07:58:09;2.47;;;1.10;;
75818;SDS011;64453;51.944;9.796;2023-04-03T08:00:36;2.80;;;1.03;;
75818;SDS011;64453;51.944;9.796;2023-04-03T08:03:04;1.57;;;0.90;;
75818;SDS011;64453;51.944;9.796;2023-04-03T08:05:34;2.20;;;1.50;;
75818;SDS011;64453;51.944;9.796;2023-04-03T08:08:05;1.97;;;1.30;;
75818;SDS011;64453;51.944;9.796;2023-04-03T08:10:32;3.63;;;1.47;;
75818;SDS011;64453;51.944;9.796;2023-04-03T08:12:59;1.57;;;1.37;;
75818;SDS011;64453;51.944;9.796;2023-04-03T08:15:27;2.00;;;1.20;;
75818;SDS011;64453;51.944;9.796;2023-04-03T08:17:55;2.90;;;1.13;;
75818;SDS011;64453;51.944;9.796;2023-04-03T08:20:22;3.13;;;1.37;;
75818;SDS011;64453;51.944;9.796;2023-04-03T08:22:49;3.00;;;1.00;;
75818;SDS011;64453;51.944;9.796;2023-04-03T08:25:17;1.87;;;1.00;;
75818;SDS011;64453;51.944;9.796;2023-04-03T08:27:44;2.20;;;1.70;;
75818;SDS011;64453;51.944;9.796;2023-04-03T08:30:11;1.23;;;0.87;;
75818;SDS011;64453;51.944;9.796;2023-04-03T08:32:39;1.83;;;0.87;;
75818;SDS011;64453;51.944;9.796;2023-04-03T08:35:07;2.10;;;1.10;;
75818;SDS011;64453;51.944;9.796;2023-04-03T08:37:34;2.50;;;1.03;;
75818;SDS011;64453;51.944;9.796;2023-04-03T08:40:02;1.83;;;1.40;;
75818;SDS011;64453;51.944;9.796;2023-04-03T08:42:36;1.00;;;1.00;;
75818;SDS011;64453;51.944;9.796;2023-04-03T08:45:10;2.50;;;1.10;;
75818;SDS011;64453;51.944;9.796;2023-04-03T08:47:42;1.27;;;0.87;;
75818;SDS011;64453;51.944;9.796;2023-04-03T08:50:16;2.30;;;1.17;;
75818;SDS011;64453;51.944;9.796;2023-04-03T08:52:47;2.00;;;0.90;;
75818;SDS011;64453;51.944;9.796;2023-04-03T08:55:20;1.00;;;0.80;;
75818;SDS011;64453;51.944;9.796;2023-04-03T08:57:53;1.90;;;1.10;;
75818;SDS011;64453;51.944;9.796;2023-04-03T09:00:28;2.27;;;0.83;;
75818;SDS011;64453;51.944;9.796;2023-04-03T09:03:01;1.33;;;1.00;;
75818;SDS011;64453;51.944;9.796;2023-04-03T09:05:31;3.33;;;1.00;;
75818;SDS011;64453;51.944;9.796;2023-04-03T09:08:11;1.30;;;0.93;;
75818;SDS011;64453;51.944;9.796;2023-04-03T09:10:47;1.73;;;1.53;;
75818;SDS011;64453;51.944;9.796;2023-04-03T09:13:21;2.67;;;1.43;;
75818;SDS011;64453;51.944;9.796;2023-04-03T09:15:53;1.37;;;0.97;;
75818;SDS011;64453;51.944;9.796;2023-04-03T09:18:23;3.97;;;1.20;;
75818;SDS011;64453;51.944;9.796;2023-04-03T09:20:56;2.17;;;0.97;;
75818;SDS011;64453;51.944;9.796;2023-04-03T09:23:33;1.27;;;0.90;;
75818;SDS011;64453;51.944;9.796;2023-04-03T09:26:09;1.70;;;0.67;;
75818;SDS011;64453;51.944;9.796;2023-04-03T09:28:43;2.50;;;1.10;;
75818;SDS011;64453;51.944;9.796;2023-04-03T09:31:14;1.40;;;0.70;;
75818;SDS011;64453;51.944;9.796;2023-04-03T09:33:47;1.17;;;1.00;;
75818;SDS011;64453;51.944;9.796;2023-04-03T09:36:37;1.93;;;0.90;;
75818;SDS011;64453;51.944;9.796;2023-04-03T09:39:10;1.07;;;0.70;;
75818;SDS011;64453;51.944;9.796;2023-04-03T09:41:41;1.53;;;1.07;;
75818;SDS011;64453;51.944;9.796;2023-04-03T09:44:23;1.03;;;0.83;;
75818;SDS011;64453;51.944;9.796;2023-04-03T09:46:52;1.70;;;1.00;;
75818;SDS011;64453;51.944;9.796;2023-04-03T09:49:19;2.30;;;1.80;;
75818;SDS011;64453;51.944;9.796;2023-04-03T09:51:46;1.20;;;1.10;;
75818;SDS011;64453;51.944;9.796;2023-04-03T09:54:24;1.00;;;0.90;;
75818;SDS011;64453;51.944;9.796;2023-04-03T09:56:57;2.80;;;1.50;;
75818;SDS011;64453;51.944;9.796;2023-04-03T09:59:33;1.53;;;1.10;;
75818;SDS011;64453;51.944;9.796;2023-04-03T10:02:03;2.43;;;1.50;;
75818;SDS011;64453;51.944;9.796;2023-04-03T10:05:03;1.73;;;1.00;;
75818;SDS011;64453;51.944;9.796;2023-04-03T10:07:32;1.27;;;1.00;;
75818;SDS011;64453;51.944;9.796;2023-04-03T10:10:02;6.90;;;1.00;;
75818;SDS011;64453;51.944;9.796;2023-04-03T10:12:43;1.50;;;0.90;;
75818;SDS011;64453;51.944;9.796;2023-04-03T10:15:12;2.20;;;0.87;;
75818;SDS011;64453;51.944;9.796;2023-04-03T10:17:45;3.43;;;0.93;;
75818;SDS011;64453;51.944;9.796;2023-04-03T10:20:26;0.80;;;0.80;;
75818;SDS011;64453;51.944;9.796;2023-04-03T10:23:05;0.93;;;0.60;;
75818;SDS011;64453;51.944;9.796;2023-04-03T10:25:43;1.13;;;0.60;;
75818;SDS011;64453;51.944;9.796;2023-04-03T10:28:24;1.10;;;0.80;;
75818;SDS011;64453;51.944;9.796;2023-04-03T10:31:00;0.63;;;0.50;;
75818;SDS011;64453;51.944;9.796;2023-04-03T10:33:39;0.93;;;0.70;;
75818;SDS011;64453;51.944;9.796;2023-04-03T10:36:19;1.07;;;0.83;;
75818;SDS011;64453;51.944;9.796;2023-04-03T10:39:00;0.77;;;0.63;;
75818;SDS011;64453;51.944;9.796;2023-04-03T10:41:35;3.00;;;0.87;;
75818;SDS011;64453;51.944;9.796;2023-04-03T10:44:16;1.20;;;0.90;;
75818;SDS011;64453;51.944;9.796;2023-04-03T10:46:56;1.13;;;0.90;;
75818;SDS011;64453;51.944;9.796;2023-04-03T10:49:32;2.03;;;1.30;;
75818;SDS011;64453;51.944;9.796;2023-04-03T10:52:13;1.53;;;0.90;;
75818;SDS011;64453;51.944;9.796;2023-04-03T10:54:47;3.80;;;0.70;;
75818;SDS011;64453;51.944;9.796;2023-04-03T10:57:24;1.53;;;1.23;;
75818;SDS011;64453;51.944;9.796;2023-04-03T10:59:55;1.40;;;0.90;;
75818;SDS011;64453;51.944;9.796;2023-04-03T11:02:28;1.00;;;0.90;;
75818;SDS011;64453;51.944;9.796;2023-04-03T11:04:59;1.20;;;1.10;;
75818;SDS011;64453;51.944;9.796;2023-04-03T11:07:36;1.30;;;1.10;;
75818;SDS011;64453;51.944;9.796;2023-04-03T11:10:10;2.70;;;2.40;;
75818;SDS011;64453;51.944;9.796;2023-04-03T11:12:46;2.30;;;1.00;;
75818;SDS011;64453;51.944;9.796;2023-04-03T11:15:17;0.97;;;0.93;;
75818;SDS011;64453;51.944;9.796;2023-04-03T11:17:48;2.03;;;0.90;;
75818;SDS011;64453;51.944;9.796;2023-04-03T11:20:23;1.37;;;0.83;;
75818;SDS011;64453;51.944;9.796;2023-04-03T11:22:55;2.57;;;1.03;;
75818;SDS011;64453;51.944;9.796;2023-04-03T11:25:29;2.63;;;1.13;;
75818;SDS011;64453;51.944;9.796;2023-04-03T11:27:58;4.00;;;1.10;;
75818;SDS011;64453;51.944;9.796;2023-04-03T11:30:28;1.40;;;1.10;;
75818;SDS011;64453;51.944;9.796;2023-04-03T11:35:58;1.27;;;0.93;;
75818;SDS011;64453;51.944;9.796;2023-04-03T11:38:33;1.37;;;0.90;;
75818;SDS011;64453;51.944;9.796;2023-04-03T11:41:04;0.83;;;0.83;;
75818;SDS011;64453;51.944;9.796;2023-04-03T11:43:38;1.83;;;0.90;;
75818;SDS011;64453;51.944;9.796;2023-04-03T11:46:08;2.40;;;1.00;;
75818;SDS011;64453;51.944;9.796;2023-04-03T11:48:45;0.93;;;0.80;;
75818;SDS011;64453;51.944;9.796;2023-04-03T12:00:53;1.40;;;0.80;;
75818;SDS011;64453;51.944;9.796;2023-04-03T12:24:46;1.73;;;0.93;;
75818;SDS011;64453;51.944;9.796;2023-04-03T12:27:26;3.33;;;0.83;;
75818;SDS011;64453;51.944;9.796;2023-04-03T12:30:12;0.90;;;0.70;;
75818;SDS011;64453;51.944;9.796;2023-04-03T12:32:47;2.77;;;0.97;;
75818;SDS011;64453;51.944;9.796;2023-04-03T12:35:31;2.20;;;0.70;;
75818;SDS011;64453;51.944;9.796;2023-04-03T12:38:15;1.10;;;0.90;;
75818;SDS011;64453;51.944;9.796;2023-04-03T12:41:10;3.03;;;1.00;;
75818;SDS011;64453;51.944;9.796;2023-04-03T12:43:58;1.37;;;0.87;;
75818;SDS011;64453;51.944;9.796;2023-04-03T12:46:36;2.00;;;1.20;;
75818;SDS011;64453;51.944;9.796;2023-04-03T12:49:12;1.23;;;0.73;;
75818;SDS011;64453;51.944;9.796;2023-04-03T12:51:54;2.60;;;1.20;;
75818;SDS011;64453;51.944;9.796;2023-04-03T12:54:22;0.73;;;0.70;;
75818;SDS011;64453;51.944;9.796;2023-04-03T12:57:08;0.80;;;0.80;;
75818;SDS011;64453;51.944;9.796;2023-04-03T12:59:36;1.13;;;0.90;;
75818;SDS011;64453;51.944;9.796;2023-04-03T13:02:10;1.10;;;1.00;;
75818;SDS011;64453;51.944;9.796;2023-04-03T13:04:53;0.80;;;0.70;;
75818;SDS011;64453;51.944;9.796;2023-04-03T13:07:24;0.80;;;0.73;;
75818;SDS011;64453;51.944;9.796;2023-04-03T13:12:45;1.50;;;0.87;;
75818;SDS011;64453;51.944;9.796;2023-04-03T13:15:15;2.30;;;0.83;;
75818;SDS011;64453;51.944;9.796;2023-04-03T13:17:45;2.20;;;0.80;;
75818;SDS011;64453;51.944;9.796;2023-04-03T13:20:17;1.10;;;0.60;;
75818;SDS011;64453;51.944;9.796;2023-04-03T13:22:52;3.77;;;1.13;;
75818;SDS011;64453;51.944;9.796;2023-04-03T13:25:24;0.80;;;0.80;;
75818;SDS011;64453;51.944;9.796;2023-04-03T13:27:54;1.20;;;0.70;;
75818;SDS011;64453;51.944;9.796;2023-04-03T13:30:27;1.10;;;1.00;;
75818;SDS011;64453;51.944;9.796;2023-04-03T13:32:58;0.70;;;0.70;;
75818;SDS011;64453;51.944;9.796;2023-04-03T13:35:29;1.37;;;0.80;;
75818;SDS011;64453;51.944;9.796;2023-04-03T13:38:02;0.70;;;0.67;;
75818;SDS011;64453;51.944;9.796;2023-04-03T13:40:33;0.80;;;0.70;;
75818;SDS011;64453;51.944;9.796;2023-04-03T13:43:01;0.90;;;0.90;;
75818;SDS011;64453;51.944;9.796;2023-04-03T13:45:31;2.53;;;1.63;;
75818;SDS011;64453;51.944;9.796;2023-04-03T13:48:16;1.20;;;0.97;;
75818;SDS011;64453;51.944;9.796;2023-04-03T13:50:55;1.27;;;0.70;;
75818;SDS011;64453;51.944;9.796;2023-04-03T13:53:27;0.97;;;0.97;;
75818;SDS011;64453;51.944;9.796;2023-04-03T13:55:57;1.30;;;1.00;;
75818;SDS011;64453;51.944;9.796;2023-04-03T13:58:32;2.27;;;1.00;;
75818;SDS011;64453;51.944;9.796;2023-04-03T14:01:01;1.23;;;1.13;;
75818;SDS011;64453;51.944;9.796;2023-04-03T14:03:40;2.00;;;0.80;;
75818;SDS011;64453;51.944;9.796;2023-04-03T14:06:12;1.53;;;1.23;;
75818;SDS011;64453;51.944;9.796;2023-04-03T14:08:43;3.00;;;2.10;;
75818;SDS011;64453;51.944;9.796;2023-04-03T14:11:12;2.40;;;2.20;;
75818;SDS011;64453;51.944;9.796;2023-04-03T14:13:42;0.80;;;0.80;;
75818;SDS011;64453;51.944;9.796;2023-04-03T14:16:12;0.77;;;0.77;;
75818;SDS011;64453;51.944;9.796;2023-04-03T14:18:41;1.67;;;1.20;;
75818;SDS011;64453;51.944;9.796;2023-04-03T14:21:11;1.00;;;0.90;;
75818;SDS011;64453;51.944;9.796;2023-04-03T14:23:39;1.27;;;0.70;;
75818;SDS011;64453;51.944;9.796;2023-04-03T14:26:09;1.03;;;0.90;;
75818;SDS011;64453;51.944;9.796;2023-04-03T14:28:41;1.00;;;0.90;;
75818;SDS011;64453;51.944;9.796;2023-04-03T14:31:09;1.33;;;0.80;;
75818;SDS011;64453;51.944;9.796;2023-04-03T14:33:36;1.37;;;1.10;;
75818;SDS011;64453;51.944;9.796;2023-04-03T14:36:05;0.83;;;0.83;;
75818;SDS011;64453;51.944;9.796;2023-04-03T14:38:39;0.93;;;0.90;;
75818;SDS011;64453;51.944;9.796;2023-04-03T14:41:07;1.13;;;1.00;;
75818;SDS011;64453;51.944;9.796;2023-04-03T14:43:38;1.00;;;0.93;;
75818;SDS011;64453;51.944;9.796;2023-04-03T14:46:08;0.90;;;0.90;;
75818;SDS011;64453;51.944;9.796;2023-04-03T14:48:39;1.33;;;0.93;;
75818;SDS011;64453;51.944;9.796;2023-04-03T14:51:07;1.40;;;1.20;;
75818;SDS011;64453;51.944;9.796;2023-04-03T14:53:36;0.87;;;0.80;;
75818;SDS011;64453;51.944;9.796;2023-04-03T14:56:05;1.37;;;1.10;;
75818;SDS011;64453;51.944;9.796;2023-04-03T14:58:38;1.37;;;1.03;;
75818;SDS011;64453;51.944;9.796;2023-04-03T15:01:05;1.10;;;1.10;;
75818;SDS011;64453;51.944;9.796;2023-04-03T15:03:32;0.80;;;0.80;;
75818;SDS011;64453;51.944;9.796;2023-04-03T15:05:58;1.20;;;0.90;;
75818;SDS011;64453;51.944;9.796;2023-04-03T15:08:27;1.20;;;1.20;;
75818;SDS011;64453;51.944;9.796;2023-04-03T15:10:56;0.90;;;0.90;;
75818;SDS011;64453;51.944;9.796;2023-04-03T15:13:24;1.23;;;0.60;;
75818;SDS011;64453;51.944;9.796;2023-04-03T15:15:51;1.03;;;0.90;;
75818;SDS011;64453;51.944;9.796;2023-04-03T15:18:20;1.10;;;1.00;;
75818;SDS011;64453;51.944;9.796;2023-04-03T15:20:51;1.40;;;1.20;;
75818;SDS011;64453;51.944;9.796;2023-04-03T15:23:18;4.10;;;2.10;;
75818;SDS011;64453;51.944;9.796;2023-04-03T15:25:46;2.60;;;1.50;;
75818;SDS011;64453;51.944;9.796;2023-04-03T15:28:17;0.87;;;0.87;;
75818;SDS011;64453;51.944;9.796;2023-04-03T15:30:50;3.23;;;1.60;;
75818;SDS011;64453;51.944;9.796;2023-04-03T15:33:17;1.50;;;1.30;;
75818;SDS011;64453;51.944;9.796;2023-04-03T15:35:43;2.13;;;1.93;;
75818;SDS011;64453;51.944;9.796;2023-04-03T15:38:11;2.53;;;2.27;;
75818;SDS011;64453;51.944;9.796;2023-04-03T15:40:38;1.47;;;1.20;;
75818;SDS011;64453;51.944;9.796;2023-04-03T15:43:05;1.80;;;1.30;;
75818;SDS011;64453;51.944;9.796;2023-04-03T15:45:33;1.60;;;1.50;;